JP-0078 weather

Hyogo Prefectural Awaji Medical Care Center Helipad
Sumoto, Hyōgo Prefecture, Japan

Public forecast

Using degrees Celsius for public forecast. Weather courtesy of forecast.io.

METAR (pilot weather report)

Closest report is Kansai International Airport, 17.9 nm (33.2 km) ENE. Retrieved 2019/05/21 15:30 UTC (30 minutes ago):

RJBB 211530Z AUTO 07006KT 9999 NCD 18/12 Q1006 NOSIG

TAF (pilot weather forecast)

Closest forecast is Kansai International Airport, 17.9 nm (33.2 km) ENE. Retrieved 2019/05/21 12:00 UTC (4 hours ago):

TAF RJBB 211105Z 2112/2218 01008KT 9999 FEW030 BECMG 2200/2203 26006KT